createdAt,value
2023-04-23T00:02:02.957Z,97795.47
2023-04-23T00:04:36.486Z,97791.09
2023-04-23T00:07:04.167Z,97790.53
2023-04-23T00:09:32.561Z,97785.50
2023-04-23T00:12:01.836Z,97789.50
2023-04-23T00:14:28.811Z,97789.22
2023-04-23T00:16:55.940Z,97788.16
2023-04-23T00:19:22.633Z,97780.88
2023-04-23T00:21:49.419Z,97776.81
2023-04-23T00:24:16.141Z,97776.72
2023-04-23T00:26:42.846Z,97780.97
2023-04-23T00:29:09.727Z,97774.50
2023-04-23T00:31:36.421Z,97776.00
2023-04-23T00:34:03.367Z,97774.78
2023-04-23T00:36:30.725Z,97771.28
2023-04-23T00:38:57.473Z,97775.78
2023-04-23T00:41:24.689Z,97781.25
2023-04-23T00:43:53.078Z,97785.41
2023-04-23T00:46:20.214Z,97783.97
2023-04-23T00:48:47.625Z,97791.25
2023-04-23T00:51:16.793Z,97787.91
2023-04-23T00:53:43.404Z,97792.00
2023-04-23T00:56:10.739Z,97782.84
2023-04-23T00:58:38.150Z,97784.97
2023-04-23T01:01:04.969Z,97773.53
2023-04-23T01:03:36.294Z,97784.03
2023-04-23T01:06:03.996Z,97783.25
2023-04-23T01:08:32.112Z,97781.38
2023-04-23T01:10:59.944Z,97791.16
2023-04-23T01:13:29.530Z,97784.47
2023-04-23T01:15:57.265Z,97783.06
2023-04-23T01:18:24.665Z,97780.16
2023-04-23T01:20:51.629Z,97792.47
2023-04-23T01:23:18.566Z,97789.47
2023-04-23T01:25:46.309Z,97786.09
2023-04-23T01:28:13.812Z,97789.22
2023-04-23T01:30:43.397Z,97789.06
2023-04-23T01:33:11.297Z,97790.75
2023-04-23T01:35:39.249Z,97786.91
2023-04-23T01:38:09.420Z,97783.19
2023-04-23T01:40:36.587Z,97785.78
2023-04-23T01:43:04.495Z,97781.75
2023-04-23T01:45:31.866Z,97787.78
2023-04-23T01:48:00.430Z,97784.78
2023-04-23T01:50:29.107Z,97784.88
2023-04-23T01:52:55.966Z,97783.91
2023-04-23T01:55:23.680Z,97793.31
2023-04-23T01:57:51.556Z,97787.56
2023-04-23T02:00:18.740Z,97789.34
2023-04-23T02:02:45.574Z,97791.28
2023-04-23T02:05:16.422Z,97788.63
2023-04-23T02:07:44.372Z,97785.72
2023-04-23T02:10:11.515Z,97784.91
2023-04-23T02:12:38.857Z,97787.84
2023-04-23T02:15:07.308Z,97785.72
2023-04-23T02:17:34.214Z,97792.91
2023-04-23T02:20:01.333Z,97798.28
2023-04-23T02:22:28.590Z,97791.78
2023-04-23T02:24:55.323Z,97793.97
2023-04-23T02:27:22.157Z,97795.72
2023-04-23T02:29:49.011Z,97786.00
2023-04-23T02:32:15.819Z,97783.63
2023-04-23T02:34:43.086Z,97784.84
2023-04-23T02:37:10.299Z,97795.16
2023-04-23T02:39:39.026Z,97794.19
2023-04-23T02:42:06.347Z,97799.25
2023-04-23T02:44:33.223Z,97793.81
2023-04-23T02:47:00.569Z,97785.09
2023-04-23T02:49:27.310Z,97788.63
2023-04-23T02:51:54.108Z,97787.78
2023-04-23T02:54:20.794Z,97787.56
2023-04-23T02:56:47.759Z,97785.78
2023-04-23T02:59:14.470Z,97788.13
2023-04-23T03:01:41.395Z,97796.34
2023-04-23T03:04:09.921Z,97798.91
2023-04-23T03:06:37.342Z,97797.47
2023-04-23T03:09:04.902Z,97798.00
2023-04-23T03:11:31.710Z,97793.31
2023-04-23T03:13:58.441Z,97799.13
2023-04-23T03:16:26.911Z,97792.97
2023-04-23T03:18:53.736Z,97794.44
2023-04-23T03:21:20.554Z,97794.16
2023-04-23T03:23:47.276Z,97803.69
2023-04-23T03:26:14.011Z,97804.47
2023-04-23T03:28:40.644Z,97798.31
2023-04-23T03:31:07.380Z,97800.69
2023-04-23T03:33:34.147Z,97798.16
2023-04-23T03:36:00.805Z,97789.19
2023-04-23T03:38:30.692Z,97784.69
2023-04-23T03:40:58.745Z,97782.69
2023-04-23T03:43:25.651Z,97775.91
2023-04-23T03:46:12.273Z,97785.38
2023-04-23T03:48:41.612Z,97785.41
2023-04-23T03:51:18.032Z,97778.31
2023-04-23T03:53:48.988Z,97777.25
2023-04-23T03:56:44.756Z,97780.13
2023-04-23T03:59:11.975Z,97780.91
2023-04-23T04:01:38.722Z,97782.59
2023-04-23T04:04:05.612Z,97781.06
2023-04-23T04:06:33.199Z,97790.22
2023-04-23T04:08:59.819Z,97783.31
2023-04-23T04:11:26.786Z,97788.03
2023-04-23T04:13:53.426Z,97784.97
2023-04-23T04:16:20.161Z,97774.81
2023-04-23T04:18:46.832Z,97786.13
2023-04-23T04:21:13.598Z,97778.19
2023-04-23T04:23:40.223Z,97783.78
2023-04-23T04:26:08.171Z,97779.53
2023-04-23T04:28:37.252Z,97772.03
2023-04-23T04:31:05.564Z,97772.88
2023-04-23T04:33:35.579Z,97777.16
2023-04-23T04:36:02.283Z,97763.44
2023-04-23T04:38:29.802Z,97771.69
2023-04-23T04:41:00.217Z,97762.66
2023-04-23T04:43:27.080Z,97760.47
2023-04-23T04:45:53.819Z,97768.19
2023-04-23T04:48:20.724Z,97759.44
2023-04-23T04:50:47.947Z,97762.13
2023-04-23T04:53:14.657Z,97762.34
2023-04-23T04:55:41.564Z,97766.66
2023-04-23T04:58:08.219Z,97767.00
2023-04-23T05:00:34.885Z,97769.66
2023-04-23T05:03:01.854Z,97770.97
2023-04-23T05:05:28.548Z,97772.81
2023-04-23T05:07:55.275Z,97767.16
2023-04-23T05:10:21.895Z,97772.03
2023-04-23T05:12:48.613Z,97770.72
2023-04-23T05:15:15.475Z,97777.00
2023-04-23T05:17:42.772Z,97771.72
2023-04-23T05:20:10.922Z,97782.47
2023-04-23T05:22:42.130Z,97775.94
2023-04-23T05:25:10.498Z,97780.97
2023-04-23T05:27:37.390Z,97783.09
2023-04-23T05:30:06.185Z,97770.59
2023-04-23T05:32:33.526Z,97770.25
2023-04-23T05:35:02.714Z,97771.25
2023-04-23T05:37:31.100Z,97765.81
2023-04-23T05:40:00.714Z,97762.50
2023-04-23T05:42:27.441Z,97766.81
2023-04-23T05:44:54.401Z,97773.22
2023-04-23T05:47:21.594Z,97774.34
2023-04-23T05:49:48.237Z,97769.53
2023-04-23T05:52:15.403Z,97775.31
2023-04-23T05:54:42.502Z,97774.00
2023-04-23T05:57:09.546Z,97785.00
2023-04-23T05:59:36.175Z,97794.03
2023-04-23T06:02:03.003Z,97785.78
2023-04-23T06:04:29.890Z,97783.78
2023-04-23T06:06:56.759Z,97779.97
2023-04-23T06:09:23.509Z,97794.88
2023-04-23T06:11:52.295Z,97782.31
2023-04-23T06:14:18.973Z,97787.06
2023-04-23T06:16:45.653Z,97789.31
2023-04-23T06:19:12.832Z,97785.06
2023-04-23T06:21:39.600Z,97787.13
2023-04-23T06:24:08.026Z,97774.69
2023-04-23T06:26:35.047Z,97777.66
2023-04-23T06:29:09.975Z,97772.78
2023-04-23T06:32:02.560Z,97778.25
2023-04-23T06:34:29.286Z,97782.28
2023-04-23T06:36:57.026Z,97772.84
2023-04-23T06:39:23.732Z,97773.31
2023-04-23T06:41:50.631Z,97766.44
2023-04-23T06:44:34.328Z,97764.41
2023-04-23T06:47:02.012Z,97763.63
2023-04-23T06:49:28.652Z,97756.81
2023-04-23T06:51:57.550Z,97763.16
2023-04-23T06:54:24.487Z,97757.69
2023-04-23T06:56:51.150Z,97758.16
2023-04-23T06:59:17.841Z,97759.22
2023-04-23T07:01:47.486Z,97756.50
2023-04-23T07:04:14.273Z,97747.31
2023-04-23T07:06:40.908Z,97755.25
2023-04-23T07:09:07.529Z,97753.28
2023-04-23T07:11:36.509Z,97756.13
2023-04-23T07:14:03.901Z,97746.84
2023-04-23T07:16:33.477Z,97749.59
2023-04-23T07:19:02.235Z,97743.69
2023-04-23T07:21:29.229Z,97739.81
2023-04-23T07:23:57.480Z,97748.03
2023-04-23T07:26:25.361Z,97740.16
2023-04-23T07:28:52.874Z,97740.97
2023-04-23T07:31:20.639Z,97730.94
2023-04-23T07:33:47.835Z,97727.25
2023-04-23T07:36:14.491Z,97721.31
2023-04-23T07:38:41.244Z,97727.31
2023-04-23T07:41:08.111Z,97719.19
2023-04-23T07:43:34.850Z,97718.47
2023-04-23T07:46:01.850Z,97711.47
2023-04-23T07:48:28.606Z,97702.38
2023-04-23T07:50:55.626Z,97708.69
2023-04-23T07:53:22.673Z,97704.22
2023-04-23T07:55:49.360Z,97707.44
2023-04-23T07:58:16.048Z,97696.03
2023-04-23T08:00:42.764Z,97689.97
2023-04-23T08:03:09.483Z,97693.16
2023-04-23T08:05:38.415Z,97692.63
2023-04-23T08:08:05.150Z,97695.97
2023-04-23T08:10:32.093Z,97688.63
2023-04-23T08:12:58.767Z,97695.47
2023-04-23T08:15:25.423Z,97689.25
2023-04-23T08:17:52.140Z,97694.56
2023-04-23T08:20:19.209Z,97690.78
2023-04-23T08:22:45.975Z,97701.94
2023-04-23T08:25:13.248Z,97701.47
2023-04-23T08:27:39.890Z,97698.06
2023-04-23T08:30:08.288Z,97699.81
2023-04-23T08:32:35.154Z,97698.88
2023-04-23T08:35:01.873Z,97697.06
2023-04-23T08:37:31.345Z,97697.16
2023-04-23T08:39:58.413Z,97707.81
2023-04-23T08:42:57.275Z,97705.31
2023-04-23T08:45:24.751Z,97701.16
2023-04-23T08:47:51.538Z,97701.09
2023-04-23T08:50:20.026Z,97697.84
2023-04-23T08:52:55.445Z,97700.63
2023-04-23T08:55:23.184Z,97687.59
2023-04-23T08:57:50.476Z,97689.34
2023-04-23T09:00:19.597Z,97695.59
2023-04-23T09:02:48.380Z,97681.25
2023-04-23T09:05:16.921Z,97683.72
2023-04-23T09:07:44.365Z,97686.66
2023-04-23T09:10:13.387Z,97683.47
2023-04-23T09:12:43.738Z,97684.78
2023-04-23T09:15:11.860Z,97689.41
2023-04-23T09:17:41.028Z,97686.22
2023-04-23T09:20:11.470Z,97686.50
2023-04-23T09:22:47.900Z,97683.53
2023-04-23T09:25:20.628Z,97679.78
2023-04-23T09:27:49.009Z,97680.94
2023-04-23T09:30:17.089Z,97681.50
2023-04-23T09:32:49.441Z,97673.53
2023-04-23T09:35:19.798Z,97650.13
2023-04-23T09:37:49.630Z,97634.22
2023-04-23T09:40:20.264Z,97631.19
2023-04-23T09:42:49.597Z,97635.41
2023-04-23T09:45:16.938Z,97639.41
2023-04-23T09:47:51.778Z,97633.88
2023-04-23T09:50:35.860Z,97631.44
2023-04-23T09:53:03.380Z,97624.91
2023-04-23T09:55:40.685Z,97619.03
2023-04-23T09:58:15.707Z,97612.75
2023-04-23T10:00:43.082Z,97602.84
2023-04-23T10:03:10.982Z,97595.72
2023-04-23T10:08:14.424Z,97593.66
2023-04-23T10:10:55.177Z,97594.13
2023-04-23T10:13:27.374Z,97593.78
2023-04-23T10:15:55.023Z,97590.22
2023-04-23T10:18:21.979Z,97595.34
2023-04-23T10:20:49.985Z,97594.28
2023-04-23T10:23:19.313Z,97596.44
2023-04-23T10:25:47.699Z,97600.88
2023-04-23T10:28:21.825Z,97593.25
2023-04-23T10:30:49.668Z,97591.41
2023-04-23T10:33:29.019Z,97591.16
2023-04-23T10:35:57.872Z,97569.63
2023-04-23T10:38:28.286Z,97562.97
2023-04-23T10:40:58.636Z,97547.13
2023-04-23T10:43:25.789Z,97540.25
2023-04-23T10:45:53.692Z,97548.13
2023-04-23T10:48:20.993Z,97517.38
2023-04-23T10:51:09.754Z,97515.84
2023-04-23T10:53:45.896Z,97510.59
2023-04-23T10:56:12.665Z,97506.63
2023-04-23T10:58:50.577Z,97491.78
2023-04-23T11:01:21.894Z,97490.00
2023-04-23T11:03:48.833Z,97470.97
2023-04-23T11:06:39.498Z,97436.41
2023-04-23T11:09:28.793Z,97445.94
2023-04-23T11:11:55.680Z,97442.22
2023-04-23T11:14:34.833Z,97419.47
2023-04-23T11:17:02.859Z,97405.75
2023-04-23T11:19:30.199Z,97403.94
2023-04-23T11:21:58.446Z,97386.34
2023-04-23T11:24:42.790Z,97402.69
2023-04-23T11:27:19.731Z,97390.75
2023-04-23T11:29:49.755Z,97380.66
2023-04-23T11:32:17.442Z,97369.03
2023-04-23T11:34:45.563Z,97375.28
2023-04-23T11:37:17.530Z,97368.16
2023-04-23T11:39:45.928Z,97376.78
2023-04-23T11:42:14.468Z,97380.66
2023-04-23T11:44:42.859Z,97383.59
2023-04-23T11:47:14.328Z,97373.97
2023-04-23T11:49:44.047Z,97367.19
2023-04-23T11:52:11.906Z,97361.13
2023-04-23T11:54:41.717Z,97346.94
2023-04-23T11:57:08.757Z,97343.19
2023-04-23T11:59:35.626Z,97333.22
2023-04-23T12:02:02.271Z,97336.31
2023-04-23T12:04:30.562Z,97328.75
2023-04-23T12:06:58.869Z,97342.44
2023-04-23T12:09:28.200Z,97324.47
2023-04-23T12:11:56.801Z,97340.16
2023-04-23T12:14:30.846Z,97330.91
2023-04-23T12:16:59.041Z,97331.94
2023-04-23T12:19:31.073Z,97322.41
2023-04-23T12:22:02.398Z,97311.72
2023-04-23T12:24:46.550Z,97308.09
2023-04-23T12:27:20.310Z,97311.47
2023-04-23T12:29:47.932Z,97315.06
2023-04-23T12:32:15.545Z,97321.53
2023-04-23T12:34:55.590Z,97311.69
2023-04-23T12:37:30.472Z,97328.09
2023-04-23T12:39:59.647Z,97321.72
2023-04-23T12:42:26.538Z,97329.66
2023-04-23T12:44:55.606Z,97321.25
2023-04-23T12:47:22.670Z,97331.06
2023-04-23T12:49:53.083Z,97329.06
2023-04-23T12:52:20.743Z,97337.56
2023-04-23T12:54:51.700Z,97324.94
2023-04-23T12:57:22.113Z,97331.91
2023-04-23T12:59:49.279Z,97329.47
2023-04-23T13:02:16.051Z,97325.19
2023-04-23T13:04:42.746Z,97325.69
2023-04-23T13:07:10.019Z,97321.56
2023-04-23T13:09:36.689Z,97313.91
2023-04-23T13:12:03.467Z,97314.78
2023-04-23T13:14:32.050Z,97316.78
2023-04-23T13:16:58.669Z,97304.19
2023-04-23T13:19:25.512Z,97310.22
2023-04-23T13:21:52.202Z,97316.38
2023-04-23T13:24:18.836Z,97314.03
2023-04-23T13:26:45.449Z,97296.81
2023-04-23T13:29:12.195Z,97299.63
2023-04-23T13:31:38.910Z,97293.53
2023-04-23T13:34:05.583Z,97287.38
2023-04-23T13:36:32.239Z,97282.59
2023-04-23T13:38:58.842Z,97279.50
2023-04-23T13:41:25.538Z,97275.44
2023-04-23T13:43:52.608Z,97260.75
2023-04-23T13:46:19.710Z,97261.75
2023-04-23T13:48:46.584Z,97260.34
2023-04-23T13:51:26.460Z,97259.31
2023-04-23T13:53:59.640Z,97280.09
2023-04-23T13:56:30.399Z,97299.50
2023-04-23T13:59:18.066Z,97330.00
2023-04-23T14:01:48.336Z,97343.88
2023-04-23T14:04:15.470Z,97332.47
2023-04-23T14:06:42.659Z,97319.25
2023-04-23T14:09:10.001Z,97305.03
2023-04-23T14:11:37.364Z,97306.75
2023-04-23T14:14:04.378Z,97304.50
2023-04-23T14:16:31.040Z,97314.00
2023-04-23T14:18:58.483Z,97313.13
2023-04-23T14:21:25.190Z,97318.19
2023-04-23T14:24:01.947Z,97305.38
2023-04-23T14:26:41.218Z,97303.88
2023-04-23T14:29:40.967Z,97285.03
2023-04-23T14:32:08.077Z,97277.63
2023-04-23T14:34:37.319Z,97269.00
2023-04-23T14:37:04.465Z,97270.41
2023-04-23T14:39:31.433Z,97263.22
2023-04-23T14:41:58.155Z,97258.91
2023-04-23T14:44:26.839Z,97257.53
2023-04-23T14:46:53.499Z,97247.66
2023-04-23T14:49:23.087Z,97252.28
2023-04-23T14:51:54.102Z,97254.66
2023-04-23T14:54:21.626Z,97241.94
2023-04-23T14:56:48.448Z,97240.06
2023-04-23T14:59:15.161Z,97248.84
2023-04-23T15:01:41.940Z,97247.50
2023-04-23T15:04:10.720Z,97245.91
2023-04-23T15:06:38.310Z,97258.38
2023-04-23T15:09:05.110Z,97258.66
2023-04-23T15:11:32.348Z,97241.66
2023-04-23T15:14:06.332Z,97246.59
2023-04-23T15:19:10.214Z,97232.44
2023-04-23T15:21:37.454Z,97232.13
2023-04-23T15:24:04.408Z,97243.56
2023-04-23T15:26:33.514Z,97244.03
2023-04-23T15:29:00.535Z,97249.66
2023-04-23T15:31:27.355Z,97255.75
2023-04-23T15:33:54.021Z,97274.69
2023-04-23T15:36:20.691Z,97315.41
2023-04-23T15:38:47.354Z,97302.41
2023-04-23T15:41:14.131Z,97302.47
2023-04-23T15:43:40.860Z,97304.53
2023-04-23T15:46:07.561Z,97299.81
2023-04-23T15:48:34.173Z,97294.59
2023-04-23T15:51:01.030Z,97292.47
2023-04-23T15:53:28.263Z,97284.53
2023-04-23T15:55:54.883Z,97284.09
2023-04-23T15:58:21.506Z,97274.47
2023-04-23T16:00:48.229Z,97267.09
2023-04-23T16:03:15.675Z,97269.41
2023-04-23T16:05:43.116Z,97270.47
2023-04-23T16:08:09.920Z,97259.88
2023-04-23T16:10:38.043Z,97256.25
2023-04-23T16:13:06.030Z,97254.63
2023-04-23T16:15:32.813Z,97252.50
2023-04-23T16:18:00.197Z,97249.59
2023-04-23T16:20:28.282Z,97247.13
2023-04-23T16:22:55.192Z,97242.50
2023-04-23T16:25:21.939Z,97253.84
2023-04-23T16:27:49.000Z,97262.28
2023-04-23T16:30:16.412Z,97256.53
2023-04-23T16:32:43.215Z,97263.50
2023-04-23T16:35:10.302Z,97251.69
2023-04-23T16:37:37.046Z,97258.34
2023-04-23T16:40:04.529Z,97254.34
2023-04-23T16:42:31.500Z,97257.56
2023-04-23T16:44:58.258Z,97261.31
2023-04-23T16:47:25.157Z,97261.88
2023-04-23T16:49:52.848Z,97256.53
2023-04-23T16:52:19.691Z,97259.81
2023-04-23T16:54:49.258Z,97264.75
2023-04-23T16:57:16.913Z,97261.63
2023-04-23T16:59:43.625Z,97266.50
2023-04-23T17:02:10.375Z,97268.91
2023-04-23T17:04:37.527Z,97292.53
2023-04-23T17:07:04.380Z,97293.94
2023-04-23T17:09:31.753Z,97281.13
2023-04-23T17:11:59.166Z,97275.69
2023-04-23T17:14:26.481Z,97276.41
2023-04-23T17:16:53.116Z,97274.84
2023-04-23T17:19:19.818Z,97278.25
2023-04-23T17:21:46.528Z,97262.81
2023-04-23T17:24:13.217Z,97275.22
2023-04-23T17:26:40.008Z,97275.81
2023-04-23T17:29:06.976Z,97254.31
2023-04-23T17:31:35.853Z,97259.66
2023-04-23T17:34:03.477Z,97262.78
2023-04-23T17:36:30.122Z,97263.28
2023-04-23T17:38:56.894Z,97260.75
2023-04-23T17:41:23.828Z,97249.53
2023-04-23T17:43:50.536Z,97244.13
2023-04-23T17:46:17.334Z,97249.94
2023-04-23T17:48:44.844Z,97249.66
2023-04-23T17:51:11.572Z,97241.19
2023-04-23T17:53:38.349Z,97242.75
2023-04-23T17:56:05.435Z,97247.97
2023-04-23T17:58:32.106Z,97246.66
2023-04-23T18:00:58.970Z,97243.00
2023-04-23T18:03:26.552Z,97238.59
2023-04-23T18:05:53.965Z,97240.19
2023-04-23T18:08:21.226Z,97236.13
2023-04-23T18:10:47.956Z,97237.94
2023-04-23T18:13:14.932Z,97246.50
2023-04-23T18:15:42.254Z,97234.44
2023-04-23T18:18:09.158Z,97238.94
2023-04-23T18:20:38.522Z,97246.13
2023-04-23T18:23:06.428Z,97243.00
2023-04-23T18:25:33.154Z,97246.22
2023-04-23T18:28:00.096Z,97255.72
2023-04-23T18:30:26.877Z,97256.91
2023-04-23T18:33:08.477Z,97267.72
2023-04-23T18:35:42.589Z,97258.44
2023-04-23T18:38:24.324Z,97254.53
2023-04-23T18:40:51.388Z,97256.41
2023-04-23T18:43:18.677Z,97254.84
2023-04-23T18:45:45.351Z,97253.94
2023-04-23T18:48:44.934Z,97262.75
2023-04-23T18:51:18.818Z,97268.22
2023-04-23T18:53:46.214Z,97275.91
2023-04-23T18:56:12.830Z,97280.53
2023-04-23T18:58:39.479Z,97280.50
2023-04-23T19:01:06.252Z,97276.31
2023-04-23T19:03:33.150Z,97282.50
2023-04-23T19:05:59.896Z,97294.44
2023-04-23T19:08:28.772Z,97286.38
2023-04-23T19:10:57.269Z,97296.63
2023-04-23T19:13:24.362Z,97293.03
2023-04-23T19:15:51.472Z,97292.19
2023-04-23T19:18:18.753Z,97307.44
2023-04-23T19:20:45.580Z,97307.06
2023-04-23T19:23:12.318Z,97310.00
2023-04-23T19:25:39.292Z,97315.47
2023-04-23T19:28:06.029Z,97313.97
2023-04-23T19:30:32.738Z,97321.03
2023-04-23T19:32:59.556Z,97319.66
2023-04-23T19:35:26.520Z,97329.59
2023-04-23T19:37:53.571Z,97317.50
2023-04-23T19:40:20.347Z,97323.28
2023-04-23T19:42:47.104Z,97327.97
2023-04-23T19:45:16.472Z,97333.22
2023-04-23T19:47:43.281Z,97334.94
2023-04-23T19:50:10.509Z,97337.03
2023-04-23T19:52:37.187Z,97347.19
2023-04-23T19:55:04.300Z,97349.06
2023-04-23T19:57:31.047Z,97350.25
2023-04-23T19:59:57.862Z,97346.78
2023-04-23T20:02:24.881Z,97355.56
2023-04-23T20:04:51.811Z,97347.59
2023-04-23T20:07:18.723Z,97348.84
2023-04-23T20:09:45.581Z,97351.59
2023-04-23T20:12:13.830Z,97335.41
2023-04-23T20:14:40.468Z,97343.72
2023-04-23T20:17:07.906Z,97350.19
2023-04-23T20:19:34.803Z,97351.31
2023-04-23T20:22:02.475Z,97351.28
2023-04-23T20:24:29.224Z,97357.03
2023-04-23T20:26:56.540Z,97349.94
2023-04-23T20:29:23.239Z,97338.16
2023-04-23T20:31:50.018Z,97338.31
2023-04-23T20:34:16.895Z,97342.66
2023-04-23T20:36:46.894Z,97343.69
2023-04-23T20:39:13.848Z,97348.69
2023-04-23T20:41:40.839Z,97342.06
2023-04-23T20:44:07.513Z,97341.56
2023-04-23T20:46:36.547Z,97336.16
2023-04-23T20:49:03.822Z,97334.16
2023-04-23T20:51:34.546Z,97328.91
2023-04-23T20:54:02.299Z,97319.41
2023-04-23T20:56:29.844Z,97318.75
2023-04-23T20:58:59.944Z,97318.63
2023-04-23T21:01:26.972Z,97323.25
2023-04-23T21:03:54.096Z,97314.56
2023-04-23T21:06:21.698Z,97317.69
2023-04-23T21:08:48.868Z,97320.19
2023-04-23T21:11:18.154Z,97320.25
2023-04-23T21:13:45.944Z,97314.56
2023-04-23T21:16:13.326Z,97313.19
2023-04-23T21:18:40.368Z,97316.94
2023-04-23T21:21:07.867Z,97317.22
2023-04-23T21:23:34.719Z,97316.56
2023-04-23T21:26:01.776Z,97312.09
2023-04-23T21:28:28.407Z,97306.97
2023-04-23T21:30:56.880Z,97308.47
2023-04-23T21:33:25.322Z,97305.88
2023-04-23T21:35:53.498Z,97306.03
2023-04-23T21:38:21.298Z,97310.06
2023-04-23T21:40:48.121Z,97296.56
2023-04-23T21:43:14.882Z,97294.56
2023-04-23T21:45:41.631Z,97299.88
2023-04-23T21:48:08.559Z,97298.47
2023-04-23T21:50:36.022Z,97295.16
2023-04-23T21:53:03.886Z,97295.19
2023-04-23T21:55:31.680Z,97295.75
2023-04-23T21:58:13.344Z,97297.03
2023-04-23T22:00:44.620Z,97305.84
2023-04-23T22:03:12.412Z,97308.41
2023-04-23T22:05:40.811Z,97318.81
2023-04-23T22:08:07.542Z,97312.59
2023-04-23T22:10:34.369Z,97309.72
2023-04-23T22:13:01.272Z,97307.44
2023-04-23T22:15:29.241Z,97300.25
2023-04-23T22:17:59.119Z,97299.53
2023-04-23T22:20:25.928Z,97299.69
2023-04-23T22:22:52.747Z,97288.56
2023-04-23T22:25:19.490Z,97291.13
2023-04-23T22:27:46.179Z,97283.97
2023-04-23T22:30:13.268Z,97273.34
2023-04-23T22:32:40.864Z,97274.97
2023-04-23T22:35:08.284Z,97273.63
2023-04-23T22:37:35.678Z,97277.81
2023-04-23T22:40:04.096Z,97274.09
2023-04-23T22:42:31.039Z,97268.50
2023-04-23T22:44:57.845Z,97263.84
2023-04-23T22:47:24.948Z,97271.41
2023-04-23T22:49:51.621Z,97273.28
2023-04-23T22:52:18.350Z,97263.66
2023-04-23T22:54:45.136Z,97273.91
2023-04-23T22:57:12.037Z,97272.50
2023-04-23T22:59:40.186Z,97276.72
2023-04-23T23:02:07.503Z,97276.00
2023-04-23T23:04:37.742Z,97265.66
2023-04-23T23:07:08.375Z,97265.66
2023-04-23T23:09:35.123Z,97264.66
2023-04-23T23:12:03.253Z,97264.22
2023-04-23T23:14:30.578Z,97274.09
2023-04-23T23:16:57.485Z,97282.78
2023-04-23T23:19:24.866Z,97266.94
2023-04-23T23:21:51.733Z,97269.34
2023-04-23T23:24:19.114Z,97280.53
2023-04-23T23:26:46.555Z,97265.44
2023-04-23T23:29:13.331Z,97262.53
2023-04-23T23:31:40.258Z,97267.47
2023-04-23T23:34:06.943Z,97269.50
2023-04-23T23:36:34.131Z,97267.38
2023-04-23T23:39:01.165Z,97261.16
2023-04-23T23:41:27.840Z,97249.34
2023-04-23T23:43:54.708Z,97248.47
2023-04-23T23:46:22.583Z,97250.34
2023-04-23T23:48:49.563Z,97248.66
2023-04-23T23:51:16.368Z,97256.94
2023-04-23T23:53:43.199Z,97253.22
2023-04-23T23:56:09.874Z,97255.44
2023-04-23T23:58:36.616Z,97249.63
